createdAt,value
2022-11-06T00:00:19.376Z,4.68
2022-11-06T00:02:51.543Z,4.70
2022-11-06T00:05:41.971Z,4.97
2022-11-06T00:10:46.044Z,3.85
2022-11-06T00:13:19.427Z,4.55
2022-11-06T00:15:51.817Z,4.90
2022-11-06T00:18:27.083Z,4.32
2022-11-06T00:20:59.014Z,4.53
2022-11-06T00:23:30.969Z,4.07
2022-11-06T00:26:06.102Z,3.80
2022-11-06T00:28:40.074Z,4.30
2022-11-06T00:31:14.177Z,3.53
2022-11-06T00:33:46.320Z,3.55
2022-11-06T00:36:20.278Z,3.63
2022-11-06T00:38:53.251Z,3.53
2022-11-06T00:41:25.434Z,3.95
2022-11-06T00:44:00.133Z,3.00
2022-11-06T00:46:32.364Z,3.15
2022-11-06T00:49:04.349Z,3.55
2022-11-06T00:51:40.708Z,3.33
2022-11-06T00:54:13.713Z,3.28
2022-11-06T00:56:45.645Z,3.78
2022-11-06T00:59:19.199Z,3.25
2022-11-06T01:01:51.214Z,3.28
2022-11-06T01:04:24.105Z,3.20
2022-11-06T01:06:58.895Z,3.13
2022-11-06T01:09:31.171Z,3.58
2022-11-06T01:12:18.435Z,3.70
2022-11-06T01:14:51.994Z,3.03
2022-11-06T01:17:24.009Z,3.47
2022-11-06T01:19:56.005Z,3.58
2022-11-06T01:22:27.894Z,3.42
2022-11-06T01:24:59.939Z,4.07
2022-11-06T01:27:31.920Z,4.50
2022-11-06T01:30:06.680Z,3.72
2022-11-06T01:32:38.583Z,3.00
2022-11-06T01:35:10.537Z,2.97
2022-11-06T01:37:43.188Z,3.25
2022-11-06T01:40:15.213Z,3.80
2022-11-06T01:42:47.111Z,3.50
2022-11-06T01:45:35.520Z,4.40
2022-11-06T01:48:07.602Z,3.80
2022-11-06T01:50:42.291Z,3.60
2022-11-06T01:53:14.780Z,2.85
2022-11-06T01:55:49.050Z,3.40
2022-11-06T01:58:22.755Z,4.55
2022-11-06T02:00:56.343Z,4.53
2022-11-06T02:03:28.563Z,3.85
2022-11-06T02:06:01.028Z,4.20
2022-11-06T02:08:33.686Z,4.72
2022-11-06T02:11:05.736Z,3.63
2022-11-06T02:13:48.664Z,4.57
2022-11-06T02:16:27.272Z,4.40
2022-11-06T02:19:36.101Z,4.45
2022-11-06T02:22:37.123Z,4.47
2022-11-06T02:25:15.543Z,4.80
2022-11-06T02:27:54.607Z,5.30
2022-11-06T02:30:26.490Z,3.75
2022-11-06T02:33:03.022Z,4.90
2022-11-06T02:35:40.317Z,5.60
2022-11-06T02:38:16.068Z,5.50
2022-11-06T02:40:52.980Z,6.13
2022-11-06T02:43:30.530Z,4.90
2022-11-06T02:46:06.679Z,5.70
2022-11-06T02:48:43.581Z,5.38
2022-11-06T02:51:18.991Z,5.10
2022-11-06T02:53:53.240Z,5.32
2022-11-06T02:56:29.077Z,4.90
2022-11-06T02:59:07.037Z,4.72
2022-11-06T03:01:44.151Z,6.50
2022-11-06T03:04:20.366Z,6.40
2022-11-06T03:06:58.154Z,5.32
2022-11-06T03:09:32.869Z,4.70
2022-11-06T03:12:16.343Z,6.32
2022-11-06T03:14:55.877Z,6.15
2022-11-06T03:17:38.115Z,6.57
2022-11-06T03:20:21.158Z,5.70
2022-11-06T03:22:58.161Z,7.20
2022-11-06T03:25:40.654Z,7.82
2022-11-06T03:28:17.068Z,6.03
2022-11-06T03:30:54.059Z,7.07
2022-11-06T03:33:32.384Z,8.23
2022-11-06T03:36:09.130Z,8.30
2022-11-06T03:38:45.635Z,7.50
2022-11-06T03:41:23.327Z,7.97
2022-11-06T03:44:00.582Z,8.05
2022-11-06T03:46:38.781Z,9.85
2022-11-06T03:49:13.826Z,10.02
2022-11-06T03:51:52.521Z,11.23
2022-11-06T03:54:29.586Z,13.43
2022-11-06T03:57:07.708Z,10.43
2022-11-06T03:59:44.448Z,12.93
2022-11-06T04:02:20.910Z,12.85
2022-11-06T04:04:57.614Z,13.32
2022-11-06T04:07:34.980Z,11.48
2022-11-06T04:10:29.115Z,11.77
2022-11-06T04:13:19.826Z,14.27
2022-11-06T04:15:53.938Z,12.10
2022-11-06T04:18:27.263Z,12.88
2022-11-06T04:21:22.307Z,12.85
2022-11-06T04:24:35.136Z,12.70
2022-11-06T04:27:23.695Z,10.75
2022-11-06T04:30:08.508Z,14.73
2022-11-06T04:32:59.576Z,12.48
2022-11-06T04:35:43.131Z,12.25
2022-11-06T04:38:27.070Z,11.57
2022-11-06T04:41:05.158Z,11.57
2022-11-06T04:43:43.023Z,8.95
2022-11-06T04:46:22.090Z,8.55
2022-11-06T04:48:55.116Z,10.82
2022-11-06T04:51:33.578Z,8.88
2022-11-06T04:54:07.101Z,8.90
2022-11-06T04:56:45.575Z,9.85
2022-11-06T04:59:18.550Z,9.45
2022-11-06T05:01:50.988Z,10.73
2022-11-06T05:04:22.924Z,8.63
2022-11-06T05:06:56.295Z,8.48
2022-11-06T05:09:28.346Z,10.05
2022-11-06T05:12:00.345Z,8.60
2022-11-06T05:14:33.477Z,9.88
2022-11-06T05:17:05.483Z,8.27
2022-11-06T05:19:37.382Z,7.45
2022-11-06T05:22:29.187Z,7.65
2022-11-06T05:25:01.279Z,7.38
2022-11-06T05:27:33.214Z,7.88
2022-11-06T05:30:06.459Z,9.18
2022-11-06T05:32:38.349Z,7.25
2022-11-06T05:35:10.431Z,7.05
2022-11-06T05:37:43.963Z,7.47
2022-11-06T05:40:16.463Z,6.72
2022-11-06T05:42:48.408Z,8.40
2022-11-06T05:45:20.355Z,6.43
2022-11-06T05:47:52.250Z,6.63
2022-11-06T05:50:24.427Z,8.00
2022-11-06T05:52:59.780Z,6.90
2022-11-06T05:55:31.779Z,7.22
2022-11-06T05:58:03.806Z,7.50
2022-11-06T06:00:35.840Z,7.07
2022-11-06T06:03:07.898Z,6.50
2022-11-06T06:05:40.031Z,8.32
2022-11-06T06:08:13.726Z,7.35
2022-11-06T06:10:46.943Z,7.05
2022-11-06T06:13:18.852Z,7.22
2022-11-06T06:15:50.776Z,6.50
2022-11-06T06:18:22.695Z,6.85
2022-11-06T06:20:54.642Z,7.28
2022-11-06T06:23:27.920Z,6.45
2022-11-06T06:25:59.884Z,8.25
2022-11-06T06:28:32.249Z,6.55
2022-11-06T06:31:05.349Z,6.93
2022-11-06T06:33:37.340Z,8.40
2022-11-06T06:36:09.886Z,7.97
2022-11-06T06:38:43.229Z,8.35
2022-11-06T06:41:15.260Z,7.70
2022-11-06T06:43:49.074Z,6.43
2022-11-06T06:46:21.019Z,7.22
2022-11-06T06:48:53.036Z,6.63
2022-11-06T06:51:25.057Z,6.10
2022-11-06T06:53:58.518Z,6.20
2022-11-06T06:56:30.517Z,7.45
2022-11-06T06:59:02.453Z,8.27
2022-11-06T07:01:34.861Z,6.50
2022-11-06T07:04:07.007Z,8.20
2022-11-06T07:06:38.947Z,10.10
2022-11-06T07:09:12.386Z,13.05
2022-11-06T07:11:44.401Z,8.77
2022-11-06T07:14:16.449Z,9.30
2022-11-06T07:16:53.485Z,9.00
2022-11-06T07:19:25.763Z,8.13
2022-11-06T07:21:57.794Z,7.40
2022-11-06T07:24:31.281Z,8.15
2022-11-06T07:27:03.264Z,6.75
2022-11-06T07:29:35.367Z,7.82
2022-11-06T07:32:08.680Z,7.47
2022-11-06T07:34:40.592Z,7.00
2022-11-06T07:37:12.574Z,6.85
2022-11-06T07:39:45.945Z,7.20
2022-11-06T07:42:17.895Z,6.43
2022-11-06T07:45:02.248Z,7.68
2022-11-06T07:47:34.239Z,6.03
2022-11-06T07:50:07.113Z,6.28
2022-11-06T07:52:39.092Z,6.30
2022-11-06T07:55:12.482Z,5.60
2022-11-06T07:57:44.522Z,9.48
2022-11-06T08:00:17.018Z,7.32
2022-11-06T08:02:51.868Z,5.45
2022-11-06T08:05:23.856Z,7.75
2022-11-06T08:07:57.327Z,7.03
2022-11-06T08:10:30.685Z,6.80
2022-11-06T08:13:02.953Z,8.82
2022-11-06T08:15:36.913Z,12.23
2022-11-06T08:18:10.144Z,11.38
2022-11-06T08:20:42.183Z,10.00
2022-11-06T08:23:14.204Z,10.18
2022-11-06T08:25:47.569Z,8.80
2022-11-06T08:28:19.494Z,8.23
2022-11-06T08:30:51.588Z,8.70
2022-11-06T08:33:24.230Z,9.38
2022-11-06T08:35:56.257Z,7.88
2022-11-06T08:38:28.266Z,8.73
2022-11-06T08:41:05.965Z,9.73
2022-11-06T08:43:38.816Z,7.03
2022-11-06T08:46:11.566Z,7.45
2022-11-06T08:48:43.529Z,7.43
2022-11-06T08:51:15.502Z,7.00
2022-11-06T08:53:47.556Z,8.77
2022-11-06T08:56:20.946Z,8.60
2022-11-06T08:58:55.598Z,7.10
2022-11-06T09:01:28.113Z,7.93
2022-11-06T09:04:00.158Z,8.45
2022-11-06T09:06:32.325Z,8.77
2022-11-06T09:09:04.307Z,8.52
2022-11-06T09:11:37.658Z,9.77
2022-11-06T09:14:09.647Z,10.23
2022-11-06T09:16:41.570Z,8.38
2022-11-06T09:19:13.539Z,9.25
2022-11-06T09:21:50.436Z,9.00
2022-11-06T09:24:43.621Z,9.10
2022-11-06T09:27:18.956Z,10.90
2022-11-06T09:29:50.925Z,10.13
2022-11-06T09:32:24.038Z,9.45
2022-11-06T09:34:55.943Z,9.48
2022-11-06T09:37:27.932Z,7.95
2022-11-06T09:40:05.821Z,6.88
2022-11-06T09:42:53.643Z,8.38
2022-11-06T09:45:29.804Z,7.90
2022-11-06T09:48:11.271Z,7.28
2022-11-06T09:50:49.384Z,7.30
2022-11-06T09:53:28.703Z,6.43
2022-11-06T09:56:02.487Z,6.93
2022-11-06T09:58:39.132Z,7.50
2022-11-06T10:01:23.273Z,7.40
2022-11-06T10:03:58.993Z,6.30
2022-11-06T10:06:31.142Z,6.93
2022-11-06T10:09:07.269Z,5.93
2022-11-06T10:11:54.603Z,6.28
2022-11-06T10:14:45.172Z,5.68
2022-11-06T10:17:35.596Z,5.38
2022-11-06T10:22:56.194Z,5.90
2022-11-06T10:25:43.406Z,5.88
2022-11-06T10:28:29.949Z,6.25
2022-11-06T10:31:15.464Z,5.30
2022-11-06T10:33:55.976Z,4.90
2022-11-06T10:36:34.312Z,5.75
2022-11-06T10:39:15.506Z,5.65
2022-11-06T10:41:51.720Z,5.00
2022-11-06T10:44:28.785Z,6.22
2022-11-06T10:47:06.395Z,6.88
2022-11-06T10:49:44.685Z,8.40
2022-11-06T10:52:39.012Z,7.45
2022-11-06T10:55:56.728Z,8.38
2022-11-06T10:58:31.358Z,10.50
2022-11-06T11:01:05.609Z,18.58
2022-11-06T11:03:42.319Z,11.73
2022-11-06T11:06:14.265Z,11.20
2022-11-06T11:08:47.886Z,9.77
2022-11-06T11:11:22.955Z,8.98
2022-11-06T11:14:21.695Z,9.65
2022-11-06T11:16:55.034Z,10.50
2022-11-06T11:19:35.911Z,14.15
2022-11-06T11:22:20.260Z,15.32
2022-11-06T11:25:01.698Z,10.15
2022-11-06T11:27:38.368Z,10.75
2022-11-06T11:30:21.309Z,10.48
2022-11-06T11:32:53.780Z,11.25
2022-11-06T11:35:29.570Z,9.00
2022-11-06T11:38:07.162Z,9.13
2022-11-06T11:40:39.919Z,10.65
2022-11-06T11:43:26.415Z,8.85
2022-11-06T11:46:20.720Z,9.75
2022-11-06T11:48:55.835Z,9.43
2022-11-06T11:51:36.760Z,10.88
2022-11-06T11:54:18.970Z,7.88
2022-11-06T11:57:08.779Z,9.93
2022-11-06T11:59:44.984Z,5.95
2022-11-06T12:02:26.564Z,18.48
2022-11-06T12:05:01.257Z,13.52
2022-11-06T12:07:39.874Z,19.85
2022-11-06T12:10:26.763Z,11.55
2022-11-06T12:13:00.622Z,10.77
2022-11-06T12:15:41.398Z,9.90
2022-11-06T12:18:16.650Z,14.05
2022-11-06T12:20:54.285Z,36.63
2022-11-06T12:23:34.190Z,10.63
2022-11-06T12:26:11.302Z,8.25
2022-11-06T12:28:45.903Z,10.95
2022-11-06T12:31:37.772Z,9.27
2022-11-06T12:34:17.768Z,8.18
2022-11-06T12:37:04.243Z,17.08
2022-11-06T12:39:44.974Z,16.77
2022-11-06T12:42:19.413Z,10.52
2022-11-06T12:44:51.501Z,12.48
2022-11-06T12:47:34.447Z,20.17
2022-11-06T12:50:40.094Z,16.23
2022-11-06T12:53:33.113Z,9.38
2022-11-06T12:56:18.849Z,7.53
2022-11-06T12:59:01.061Z,9.35
2022-11-06T13:01:46.844Z,8.18
2022-11-06T13:04:35.937Z,7.13
2022-11-06T13:07:40.922Z,8.15
2022-11-06T13:10:28.166Z,8.35
2022-11-06T13:13:16.676Z,8.32
2022-11-06T13:15:56.497Z,8.35
2022-11-06T13:18:34.065Z,8.48
2022-11-06T13:21:14.951Z,8.52
2022-11-06T13:23:50.506Z,7.90
2022-11-06T13:26:30.639Z,7.32
2022-11-06T13:29:06.269Z,8.50
2022-11-06T13:31:41.965Z,7.93
2022-11-06T13:34:18.999Z,7.28
2022-11-06T13:36:51.337Z,7.93
2022-11-06T13:39:31.640Z,7.88
2022-11-06T13:42:10.701Z,8.18
2022-11-06T13:44:44.293Z,9.48
2022-11-06T13:47:21.659Z,9.80
2022-11-06T13:50:02.712Z,9.20
2022-11-06T13:52:41.626Z,10.73
2022-11-06T13:55:23.067Z,11.98
2022-11-06T13:58:21.018Z,9.93
2022-11-06T14:01:05.351Z,14.88
2022-11-06T14:04:04.254Z,10.20
2022-11-06T14:06:38.305Z,9.32
2022-11-06T14:09:17.221Z,8.52
2022-11-06T14:11:54.085Z,12.02
2022-11-06T14:14:28.956Z,12.73
2022-11-06T14:17:22.290Z,12.10
2022-11-06T14:20:04.870Z,12.00
2022-11-06T14:22:38.344Z,14.68
2022-11-06T14:25:46.928Z,13.00
2022-11-06T14:28:29.809Z,12.13
2022-11-06T14:31:23.777Z,14.05
2022-11-06T14:34:02.599Z,13.35
2022-11-06T14:36:36.354Z,14.38
2022-11-06T14:39:11.055Z,13.52
2022-11-06T14:41:56.503Z,13.65
2022-11-06T14:44:39.488Z,14.95
2022-11-06T14:47:26.328Z,12.95
2022-11-06T14:50:04.670Z,12.38
2022-11-06T14:52:44.727Z,12.77
2022-11-06T14:55:27.414Z,11.52
2022-11-06T14:58:13.234Z,14.35
2022-11-06T15:00:50.848Z,18.45
2022-11-06T15:03:30.895Z,19.73
2022-11-06T15:06:20.147Z,16.45
2022-11-06T15:08:57.697Z,17.50
2022-11-06T15:11:48.926Z,13.23
2022-11-06T15:15:01.774Z,14.02
2022-11-06T15:17:35.902Z,15.40
2022-11-06T15:20:30.630Z,13.52
2022-11-06T15:23:18.220Z,12.25
2022-11-06T15:26:00.923Z,13.57
2022-11-06T15:28:40.839Z,11.70
2022-11-06T15:31:16.604Z,10.25
2022-11-06T15:33:59.833Z,11.90
2022-11-06T15:36:37.513Z,9.13
2022-11-06T15:39:26.804Z,11.40
2022-11-06T15:41:59.473Z,10.88
2022-11-06T15:44:31.475Z,9.10
2022-11-06T15:47:03.398Z,9.75
2022-11-06T15:49:35.404Z,11.35
2022-11-06T15:52:17.021Z,10.38
2022-11-06T15:54:56.841Z,10.23
2022-11-06T15:57:30.220Z,9.57
2022-11-06T16:00:09.827Z,11.05
2022-11-06T16:02:48.016Z,8.77
2022-11-06T16:05:21.932Z,9.73
2022-11-06T16:07:54.254Z,12.23
2022-11-06T16:10:27.912Z,10.63
2022-11-06T16:13:02.438Z,10.15
2022-11-06T16:15:52.782Z,8.63
2022-11-06T16:18:28.328Z,11.55
2022-11-06T16:21:07.816Z,10.20
2022-11-06T16:23:42.908Z,8.97
2022-11-06T16:26:23.273Z,11.25
2022-11-06T16:31:30.189Z,7.97
2022-11-06T16:34:05.499Z,7.60
2022-11-06T16:36:51.722Z,5.47
2022-11-06T16:39:49.409Z,5.25
2022-11-06T16:42:28.533Z,4.80
2022-11-06T16:45:03.161Z,4.65
2022-11-06T16:47:35.187Z,3.75
2022-11-06T16:50:43.501Z,3.42
2022-11-06T16:53:20.049Z,3.67
2022-11-06T16:55:56.942Z,4.00
2022-11-06T16:58:33.588Z,3.38
2022-11-06T17:01:06.613Z,4.82
2022-11-06T17:03:40.503Z,4.03
2022-11-06T17:06:20.367Z,3.88
2022-11-06T17:09:07.887Z,4.40
2022-11-06T17:11:41.190Z,3.65
2022-11-06T17:14:19.050Z,4.18
2022-11-06T17:16:52.827Z,3.53
2022-11-06T17:19:26.497Z,3.80
2022-11-06T17:21:58.719Z,4.10
2022-11-06T17:24:36.497Z,4.90
2022-11-06T17:27:09.436Z,3.83
2022-11-06T17:29:42.846Z,3.80
2022-11-06T17:32:14.755Z,5.72
2022-11-06T17:34:46.656Z,4.63
2022-11-06T17:37:21.965Z,5.30
2022-11-06T17:39:53.989Z,5.03
2022-11-06T17:42:25.866Z,4.20
2022-11-06T17:44:59.400Z,5.07
2022-11-06T17:47:31.308Z,6.75
2022-11-06T17:50:03.770Z,4.30
2022-11-06T17:52:35.724Z,4.72
2022-11-06T17:55:09.114Z,3.80
2022-11-06T17:57:41.084Z,4.00
2022-11-06T18:00:14.870Z,4.63
2022-11-06T18:03:00.955Z,4.05
2022-11-06T18:05:35.986Z,5.10
2022-11-06T18:08:12.351Z,4.72
2022-11-06T18:10:44.536Z,6.13
2022-11-06T18:13:16.422Z,5.13
2022-11-06T18:15:49.741Z,5.63
2022-11-06T18:18:21.887Z,5.30
2022-11-06T18:20:53.826Z,6.20
2022-11-06T18:23:25.729Z,5.05
2022-11-06T18:25:58.142Z,6.03
2022-11-06T18:28:30.305Z,5.32
2022-11-06T18:31:03.699Z,4.85
2022-11-06T18:33:35.926Z,5.95
2022-11-06T18:36:09.751Z,6.07
2022-11-06T18:38:42.349Z,6.88
2022-11-06T18:41:16.240Z,5.63
2022-11-06T18:43:48.159Z,6.10
2022-11-06T18:46:21.543Z,5.65
2022-11-06T18:48:54.901Z,7.93
2022-11-06T18:51:35.164Z,6.82
2022-11-06T18:54:10.435Z,7.97
2022-11-06T18:56:42.447Z,6.25
2022-11-06T18:59:16.450Z,6.63
2022-11-06T19:01:49.954Z,7.03
2022-11-06T19:04:22.103Z,6.65
2022-11-06T19:06:54.520Z,6.18
2022-11-06T19:09:26.595Z,7.75
2022-11-06T19:11:58.582Z,6.45
2022-11-06T19:14:30.543Z,6.85
2022-11-06T19:17:04.067Z,5.45
2022-11-06T19:19:36.012Z,6.90
2022-11-06T19:22:08.022Z,6.22
2022-11-06T19:24:39.927Z,6.57
2022-11-06T19:27:11.919Z,7.50
2022-11-06T19:29:43.801Z,5.97
2022-11-06T19:32:17.126Z,6.25
2022-11-06T19:34:48.995Z,5.70
2022-11-06T19:37:20.938Z,6.47
2022-11-06T19:39:53.448Z,5.65
2022-11-06T19:42:25.414Z,5.80
2022-11-06T19:44:57.398Z,6.25
2022-11-06T19:47:32.408Z,8.38
2022-11-06T19:50:05.078Z,6.93
2022-11-06T19:52:41.561Z,5.88
2022-11-06T19:55:27.032Z,8.27
2022-11-06T19:57:59.725Z,5.68
2022-11-06T20:00:31.655Z,7.43
2022-11-06T20:03:05.114Z,6.80
2022-11-06T20:05:37.189Z,6.53
2022-11-06T20:08:10.163Z,7.25
2022-11-06T20:10:42.320Z,8.25
2022-11-06T20:13:14.490Z,6.53
2022-11-06T20:15:46.852Z,6.75
2022-11-06T20:18:20.170Z,6.20
2022-11-06T20:20:52.118Z,5.68
2022-11-06T20:23:24.138Z,5.55
2022-11-06T20:25:56.574Z,6.40
2022-11-06T20:28:28.662Z,6.60
2022-11-06T20:31:04.712Z,5.45
2022-11-06T20:33:38.802Z,5.95
2022-11-06T20:36:12.810Z,5.50
2022-11-06T20:38:45.229Z,5.07
2022-11-06T20:41:17.378Z,6.20
2022-11-06T20:43:49.739Z,6.00
2022-11-06T20:46:23.423Z,5.70
2022-11-06T20:48:58.301Z,7.43
2022-11-06T20:51:42.986Z,7.45
2022-11-06T20:54:25.094Z,6.50
2022-11-06T20:56:56.998Z,6.78
2022-11-06T20:59:29.071Z,5.65
2022-11-06T21:02:01.135Z,6.40
2022-11-06T21:04:34.710Z,6.25
2022-11-06T21:07:06.620Z,6.70
2022-11-06T21:09:38.657Z,6.47
2022-11-06T21:12:11.477Z,6.35
2022-11-06T21:14:43.418Z,7.43
2022-11-06T21:17:15.795Z,7.72
2022-11-06T21:19:49.133Z,6.60
2022-11-06T21:22:21.033Z,6.50
2022-11-06T21:24:52.994Z,9.32
2022-11-06T21:27:25.017Z,6.53
2022-11-06T21:29:58.296Z,8.15
2022-11-06T21:32:30.217Z,8.98
2022-11-06T21:35:03.787Z,8.00
2022-11-06T21:37:35.658Z,8.90
2022-11-06T21:40:09.759Z,8.13
2022-11-06T21:42:41.735Z,9.35
2022-11-06T21:45:14.984Z,8.27
2022-11-06T21:47:47.056Z,7.90
2022-11-06T21:50:28.122Z,7.20
2022-11-06T21:53:19.831Z,8.85
2022-11-06T21:56:00.818Z,7.63
2022-11-06T21:58:32.722Z,7.25
2022-11-06T22:01:05.636Z,7.05
2022-11-06T22:03:37.839Z,6.93
2022-11-06T22:06:13.225Z,7.38
2022-11-06T22:08:47.090Z,7.35
2022-11-06T22:11:20.650Z,6.20
2022-11-06T22:13:53.922Z,6.63
2022-11-06T22:16:27.786Z,8.02
2022-11-06T22:18:59.718Z,7.03
2022-11-06T22:21:34.139Z,5.63
2022-11-06T22:24:07.282Z,7.00
2022-11-06T22:26:39.857Z,6.85
2022-11-06T22:29:13.604Z,6.43
2022-11-06T22:31:45.496Z,6.20
2022-11-06T22:34:17.407Z,5.40
2022-11-06T22:36:50.746Z,5.18
2022-11-06T22:39:22.667Z,6.00
2022-11-06T22:41:54.614Z,5.65
2022-11-06T22:44:27.167Z,5.88
2022-11-06T22:46:59.447Z,5.63
2022-11-06T22:49:31.578Z,5.30
2022-11-06T22:52:05.088Z,6.05
2022-11-06T22:54:37.014Z,5.40
2022-11-06T22:57:08.960Z,5.97
2022-11-06T22:59:40.862Z,5.25
2022-11-06T23:02:12.929Z,5.03
2022-11-06T23:04:44.900Z,6.43
2022-11-06T23:07:18.192Z,6.22
2022-11-06T23:09:50.094Z,6.07
2022-11-06T23:12:22.027Z,6.15
2022-11-06T23:14:53.919Z,5.53
2022-11-06T23:17:26.143Z,5.53
2022-11-06T23:19:58.083Z,6.68
2022-11-06T23:22:37.641Z,5.47
2022-11-06T23:25:11.235Z,6.25
2022-11-06T23:27:49.450Z,6.68
2022-11-06T23:30:21.877Z,5.97
2022-11-06T23:32:53.933Z,6.13
2022-11-06T23:35:32.194Z,5.95
2022-11-06T23:38:06.273Z,5.80
2022-11-06T23:40:38.157Z,6.32
2022-11-06T23:43:10.050Z,5.10
2022-11-06T23:45:51.508Z,5.90
2022-11-06T23:48:23.405Z,5.65
2022-11-06T23:50:55.981Z,5.80
2022-11-06T23:53:29.255Z,5.70
2022-11-06T23:56:05.513Z,6.18
2022-11-06T23:58:37.891Z,6.10
